createdAt,value
2017-05-23T00:00:33.696Z,20.42
2017-05-23T00:01:44.046Z,20.46
2017-05-23T00:02:54.399Z,20.42
2017-05-23T00:04:04.806Z,20.4
2017-05-23T00:05:14.849Z,20.41
2017-05-23T00:06:24.580Z,20.44
2017-05-23T00:07:34.327Z,20.44
2017-05-23T00:08:44.365Z,20.46
2017-05-23T00:09:54.766Z,20.44
2017-05-23T00:11:05.139Z,20.37
2017-05-23T00:12:15.178Z,20.42
2017-05-23T00:13:25.545Z,20.4
2017-05-23T00:14:35.910Z,20.4
2017-05-23T00:15:46.259Z,20.3
2017-05-23T00:16:56.302Z,20.22
2017-05-23T00:18:06.648Z,20.23
2017-05-23T00:19:16.376Z,20.22
2017-05-23T00:20:26.172Z,20.15
2017-05-23T00:21:36.515Z,20.23
2017-05-23T00:22:46.878Z,20.26
2017-05-23T00:23:57.218Z,20.26
2017-05-23T00:25:07.583Z,20.19
2017-05-23T00:26:17.646Z,20.2
2017-05-23T00:27:27.376Z,20.29
2017-05-23T00:28:37.407Z,20.29
2017-05-23T00:29:47.763Z,20.27
2017-05-23T00:30:57.794Z,20.22
2017-05-23T00:32:08.189Z,20.29
2017-05-23T00:33:18.226Z,20.29
2017-05-23T00:34:28.572Z,20.29
2017-05-23T00:35:38.611Z,20.26
2017-05-23T00:36:48.963Z,20.23
2017-05-23T00:37:59.304Z,20.23
2017-05-23T00:39:09.667Z,20.27
2017-05-23T00:40:20.003Z,20.16
2017-05-23T00:41:30.459Z,20.18
2017-05-23T00:42:40.804Z,20.1
2017-05-23T00:43:51.149Z,20.07
2017-05-23T00:45:01.505Z,20.11
2017-05-23T00:46:11.849Z,20.18
2017-05-23T00:47:22.203Z,20.05
2017-05-23T00:48:32.245Z,20.07
2017-05-23T00:49:42.300Z,20.08
2017-05-23T00:50:52.657Z,20.05
2017-05-23T00:52:02.684Z,20.12
2017-05-23T00:53:12.713Z,20.05
2017-05-23T00:54:22.759Z,20.05
2017-05-23T00:55:32.799Z,20.05
2017-05-23T00:56:43.152Z,20.08
2017-05-23T00:57:53.191Z,20.08
2017-05-23T00:59:02.908Z,20.07
2017-05-23T01:00:13.252Z,20.07
2017-05-23T01:01:23.290Z,20.05
2017-05-23T01:02:33.647Z,20
2017-05-23T01:03:43.995Z,20.07
2017-05-23T01:04:54.106Z,20.04
2017-05-23T01:06:04.154Z,20.01
2017-05-23T01:07:14.201Z,20.02
2017-05-23T01:08:24.575Z,20.1
2017-05-23T01:09:34.606Z,20.05
2017-05-23T01:10:44.703Z,20.01
2017-05-23T01:11:55.069Z,20.04
2017-05-23T01:13:04.830Z,20.04
2017-05-23T01:14:15.187Z,20.04
2017-05-23T01:15:25.230Z,20.1
2017-05-23T01:16:35.625Z,20.07
2017-05-23T01:17:45.346Z,20.11
2017-05-23T01:18:55.701Z,20.08
2017-05-23T01:20:05.441Z,20.08
2017-05-23T01:21:15.817Z,20.08
2017-05-23T01:22:26.212Z,20.1
2017-05-23T01:23:36.554Z,20.12
2017-05-23T01:24:46.596Z,20
2017-05-23T01:25:56.962Z,20
2017-05-23T01:27:07.302Z,20.04
2017-05-23T01:28:17.326Z,20.07
2017-05-23T01:29:27.695Z,20
2017-05-23T01:30:38.056Z,20
2017-05-23T01:31:48.419Z,20.04
2017-05-23T01:32:58.767Z,20.1
2017-05-23T01:34:08.850Z,20
2017-05-23T01:35:18.969Z,20.08
2017-05-23T01:36:29.326Z,20
2017-05-23T01:37:39.690Z,20.1
2017-05-23T01:38:50.041Z,19.98
2017-05-23T01:40:00.085Z,20.11
2017-05-23T01:41:10.121Z,20.02
2017-05-23T01:42:20.478Z,20.01
2017-05-23T01:43:30.829Z,19.97
2017-05-23T01:44:41.171Z,20
2017-05-23T01:45:51.521Z,20.01
2017-05-23T01:47:01.873Z,20
2017-05-23T01:48:12.217Z,19.97
2017-05-23T01:49:22.308Z,20
2017-05-23T01:50:32.679Z,20
2017-05-23T01:51:43.037Z,20
2017-05-23T01:52:53.468Z,19.97
2017-05-23T01:54:03.818Z,20.08
2017-05-23T01:55:13.855Z,20.05
2017-05-23T01:56:24.212Z,20
2017-05-23T01:57:34.241Z,20.02
2017-05-23T01:58:44.336Z,20
2017-05-23T01:59:54.702Z,20.01
2017-05-23T02:01:05.052Z,20.05
2017-05-23T02:02:15.405Z,20.02
2017-05-23T02:03:25.768Z,20.05
2017-05-23T02:04:35.805Z,20.07
2017-05-23T02:05:46.157Z,20.1
2017-05-23T02:06:56.203Z,20.1
2017-05-23T02:08:06.551Z,20.01
2017-05-23T02:09:16.906Z,20.12
2017-05-23T02:10:27.305Z,20.02
2017-05-23T02:11:37.659Z,20.12
2017-05-23T02:12:48.009Z,20.1
2017-05-23T02:13:58.373Z,20.07
2017-05-23T02:15:08.411Z,20.16
2017-05-23T02:16:18.763Z,20.16
2017-05-23T02:17:28.798Z,20.07
2017-05-23T02:18:38.890Z,20.15
2017-05-23T02:19:49.258Z,20.07
2017-05-23T02:20:59.614Z,20.08
2017-05-23T02:22:09.961Z,20.1
2017-05-23T02:23:20.318Z,20.12
2017-05-23T02:24:30.739Z,20.08
2017-05-23T02:25:41.117Z,20.18
2017-05-23T02:26:51.467Z,20.07
2017-05-23T02:28:01.825Z,20.11
2017-05-23T02:29:12.179Z,20.1
2017-05-23T02:30:22.574Z,20.11
2017-05-23T02:31:32.614Z,20.08
2017-05-23T02:32:42.964Z,20.04
2017-05-23T02:33:53.377Z,20.1
2017-05-23T02:35:03.425Z,20.08
2017-05-23T02:36:13.767Z,20.02
2017-05-23T02:37:23.490Z,20.01
2017-05-23T02:38:33.217Z,20.01
2017-05-23T02:39:43.565Z,20.04
2017-05-23T02:40:53.295Z,19.98
2017-05-23T02:42:03.376Z,20
2017-05-23T02:43:13.746Z,19.95
2017-05-23T02:44:24.092Z,19.89
2017-05-23T02:45:34.451Z,19.85
2017-05-23T02:46:44.799Z,19.78
2017-05-23T02:47:55.216Z,19.74
2017-05-23T02:49:05.261Z,19.79
2017-05-23T02:50:14.972Z,19.75
2017-05-23T02:51:25.321Z,19.75
2017-05-23T02:52:35.685Z,19.79
2017-05-23T02:53:45.769Z,19.8
2017-05-23T02:54:56.166Z,19.79
2017-05-23T02:56:06.517Z,19.79
2017-05-23T02:57:16.858Z,19.72
2017-05-23T02:58:26.903Z,19.83
2017-05-23T02:59:37.252Z,19.85
2017-05-23T03:00:47.602Z,19.9
2017-05-23T03:01:57.649Z,19.95
2017-05-23T03:33:15.556Z,18.02
2017-05-23T03:34:25.280Z,18.08
2017-05-23T03:35:35.614Z,18.16
2017-05-23T03:36:45.648Z,18.2
2017-05-23T03:37:55.986Z,18.17
2017-05-23T03:39:06.023Z,18.34
2017-05-23T03:40:16.061Z,18.54
2017-05-23T03:41:26.402Z,18.71
2017-05-23T03:42:36.742Z,18.82
2017-05-23T03:43:46.780Z,19
2017-05-23T03:44:56.546Z,19.23
2017-05-23T03:46:06.886Z,19.42
2017-05-23T03:47:17.235Z,19.68
2017-05-23T03:48:27.268Z,19.82
2017-05-23T03:49:37.626Z,20.01
2017-05-23T03:50:47.676Z,20.08
2017-05-23T03:51:58.076Z,20.26
2017-05-23T03:53:08.117Z,20.41
2017-05-23T03:54:18.467Z,20.63
2017-05-23T03:55:28.505Z,20.78
2017-05-23T03:56:38.905Z,20.91
2017-05-23T03:57:49.266Z,21.12
2017-05-23T03:58:59.642Z,21.13
2017-05-23T04:00:09.980Z,21.36
2017-05-23T04:01:20.007Z,21.48
2017-05-23T04:02:30.089Z,21.61
2017-05-23T04:03:40.157Z,21.64
2017-05-23T04:04:49.883Z,21.71
2017-05-23T04:06:00.232Z,21.82
2017-05-23T04:07:10.279Z,21.86
2017-05-23T04:08:20.318Z,21.97
2017-05-23T04:09:30.354Z,22
2017-05-23T04:10:40.456Z,22.16
2017-05-23T04:11:50.814Z,22.16
2017-05-23T04:13:01.158Z,22.29
2017-05-23T04:14:10.951Z,22.51
2017-05-23T04:15:20.986Z,22.63
2017-05-23T04:16:31.021Z,22.84
2017-05-23T04:17:41.067Z,22.84
2017-05-23T04:18:51.104Z,22.97
2017-05-23T04:20:01.459Z,23.29
2017-05-23T04:21:11.177Z,23.64
2017-05-23T04:22:21.523Z,24
2017-05-23T04:23:31.881Z,24.33
2017-05-23T04:24:42.229Z,24.7
2017-05-23T04:25:52.582Z,24.85
2017-05-23T04:27:02.935Z,25.15
2017-05-23T04:28:13.291Z,25.34
2017-05-23T04:29:23.320Z,25.66
2017-05-23T04:30:33.361Z,25.82
2017-05-23T04:31:43.707Z,26.15
2017-05-23T04:32:53.816Z,26.32
2017-05-23T04:34:04.184Z,26.45
2017-05-23T04:35:14.554Z,26.69
2017-05-23T04:36:24.919Z,26.71
2017-05-23T04:37:35.270Z,26.54
2017-05-23T04:38:45.668Z,26.19
2017-05-23T04:39:56.022Z,25.91
2017-05-23T04:41:06.380Z,25.75
2017-05-23T04:42:16.742Z,25.59
2017-05-23T04:43:27.107Z,25.51
2017-05-23T04:44:37.153Z,25.32
2017-05-23T04:45:47.500Z,25.44
2017-05-23T04:46:57.861Z,25.56
2017-05-23T04:48:07.907Z,25.52
2017-05-23T04:49:18.005Z,25.47
2017-05-23T04:50:28.364Z,25.47
2017-05-23T04:51:38.431Z,25.54
2017-05-23T04:52:48.473Z,25.57
2017-05-23T04:53:58.506Z,25.76
2017-05-23T04:55:08.603Z,26.01
2017-05-23T04:56:18.696Z,26.03
2017-05-23T04:57:29.060Z,26.12
2017-05-23T04:58:39.406Z,26.23
2017-05-23T04:59:49.519Z,26.31
2017-05-23T05:00:59.606Z,26.41
2017-05-23T05:02:09.968Z,26.6
2017-05-23T05:03:20.322Z,26.89
2017-05-23T05:04:30.362Z,27.01
2017-05-23T05:05:40.728Z,27.27
2017-05-23T05:06:50.773Z,27.3
2017-05-23T05:08:01.127Z,27.16
2017-05-23T05:09:11.491Z,27.12
2017-05-23T05:10:21.830Z,27.21
2017-05-23T05:11:32.184Z,27.49
2017-05-23T05:12:42.600Z,27.34
2017-05-23T05:13:52.950Z,27.06
2017-05-23T05:15:02.367Z,26.9
2017-05-23T05:16:12.718Z,26.87
2017-05-23T05:17:22.751Z,26.94
2017-05-23T05:18:33.152Z,26.79
2017-05-23T05:19:43.496Z,26.76
2017-05-23T05:20:53.853Z,26.64
2017-05-23T05:22:03.573Z,26.59
2017-05-23T05:23:13.940Z,26.57
2017-05-23T05:24:24.355Z,26.34
2017-05-23T05:25:34.714Z,26.31
2017-05-23T05:26:45.060Z,26.15
2017-05-23T05:27:55.113Z,26.01
2017-05-23T05:29:04.846Z,25.96
2017-05-23T05:30:15.260Z,25.93
2017-05-23T05:31:25.624Z,25.94
2017-05-23T05:32:35.976Z,25.86
2017-05-23T05:33:46.341Z,25.86
2017-05-23T05:34:56.695Z,25.84
2017-05-23T05:36:06.791Z,25.91
2017-05-23T05:37:17.141Z,25.88
2017-05-23T05:38:27.503Z,25.94
2017-05-23T05:39:37.542Z,25.89
2017-05-23T05:40:47.584Z,25.85
2017-05-23T05:41:57.973Z,25.88
2017-05-23T05:43:08.021Z,25.85
2017-05-23T05:44:18.402Z,25.78
2017-05-23T05:45:28.760Z,25.78
2017-05-23T05:46:39.123Z,25.6
2017-05-23T05:47:49.168Z,25.59
2017-05-23T05:48:59.545Z,25.59
2017-05-23T05:50:09.899Z,25.6
2017-05-23T05:51:19.950Z,25.56
2017-05-23T05:52:30.289Z,25.51
2017-05-23T05:53:40.702Z,25.48
2017-05-23T05:54:51.050Z,25.47
2017-05-23T05:56:01.401Z,25.47
2017-05-23T05:57:11.523Z,25.41
2017-05-23T05:58:21.244Z,25.41
2017-05-23T05:59:31.603Z,25.42
2017-05-23T06:00:41.649Z,25.37
2017-05-23T06:01:51.688Z,25.34
2017-05-23T06:03:01.755Z,25.41
2017-05-23T06:04:12.104Z,25.44
2017-05-23T06:05:22.500Z,25.38
2017-05-23T06:06:32.225Z,25.44
2017-05-23T06:07:42.579Z,25.44
2017-05-23T06:08:52.594Z,25.41
2017-05-23T06:10:02.383Z,25.38
2017-05-23T06:11:12.423Z,25.38
2017-05-23T06:12:22.783Z,25.39
2017-05-23T06:13:33.133Z,25.42
2017-05-23T06:14:43.478Z,25.42
2017-05-23T06:15:53.528Z,25.44
2017-05-23T06:17:03.883Z,25.56
2017-05-23T06:18:13.937Z,25.6
2017-05-23T06:19:24.295Z,25.56
2017-05-23T06:20:34.338Z,25.62
2017-05-23T06:21:44.748Z,25.62
2017-05-23T06:22:55.131Z,25.71
2017-05-23T06:24:05.167Z,25.76
2017-05-23T06:25:15.201Z,25.74
2017-05-23T06:26:25.554Z,25.67
2017-05-23T06:27:35.925Z,25.75
2017-05-23T06:28:46.350Z,25.75
2017-05-23T06:29:56.396Z,25.89
2017-05-23T06:31:06.758Z,25.91
2017-05-23T06:32:17.103Z,25.99
2017-05-23T06:33:27.158Z,26.06
2017-05-23T06:34:37.499Z,26.17
2017-05-23T06:35:47.239Z,26.26
2017-05-23T06:36:57.592Z,26.3
2017-05-23T06:38:07.994Z,26.31
2017-05-23T06:39:18.366Z,26.44
2017-05-23T06:40:28.475Z,26.41
2017-05-23T06:41:38.832Z,26.56
2017-05-23T06:42:49.175Z,26.57
2017-05-23T06:43:59.538Z,26.57
2017-05-23T06:45:09.586Z,26.71
2017-05-23T06:46:19.675Z,26.71
2017-05-23T06:47:29.701Z,26.67
2017-05-23T06:48:39.738Z,26.76
2017-05-23T06:49:50.102Z,26.76
2017-05-23T06:51:00.144Z,26.9
2017-05-23T06:52:10.208Z,26.96
2017-05-23T06:53:19.927Z,26.94
2017-05-23T06:54:29.963Z,27.05
2017-05-23T06:55:40.003Z,27.24
2017-05-23T06:56:50.362Z,27.33
2017-05-23T06:58:00.919Z,27.48
2017-05-23T06:59:11.264Z,27.53
2017-05-23T07:00:21.623Z,27.65
2017-05-23T07:01:31.654Z,27.83
2017-05-23T07:02:41.703Z,27.86
2017-05-23T07:03:52.067Z,27.86
2017-05-23T07:05:02.410Z,27.99
2017-05-23T07:06:12.769Z,28.03
2017-05-23T07:07:22.854Z,28.09
2017-05-23T07:08:33.225Z,28.17
2017-05-23T07:09:42.961Z,28.35
2017-05-23T07:10:53.331Z,28.53
2017-05-23T07:12:03.677Z,28.72
2017-05-23T07:13:13.723Z,28.86
2017-05-23T07:14:23.783Z,29.15
2017-05-23T07:15:33.815Z,29.36
2017-05-23T07:16:44.161Z,29.47
2017-05-23T07:17:54.196Z,29.69
2017-05-23T07:19:04.245Z,29.7
2017-05-23T07:20:14.665Z,29.85
2017-05-23T07:21:25.046Z,29.95
2017-05-23T07:22:35.477Z,29.84
2017-05-23T07:23:45.837Z,29.92
2017-05-23T07:24:55.946Z,29.95
2017-05-23T07:26:06.346Z,30.04
2017-05-23T07:27:16.387Z,30.1
2017-05-23T07:28:26.808Z,30.11
2017-05-23T07:29:36.863Z,30.03
2017-05-23T07:30:47.228Z,29.92
2017-05-23T07:31:57.637Z,29.82
2017-05-23T07:33:07.978Z,29.72
2017-05-23T07:34:18.014Z,29.61
2017-05-23T07:35:28.376Z,29.61
2017-05-23T07:36:38.724Z,29.69
2017-05-23T07:37:49.076Z,29.67
2017-05-23T07:38:59.441Z,29.65
2017-05-23T07:40:09.513Z,29.73
2017-05-23T07:41:19.866Z,29.91
2017-05-23T07:42:29.914Z,29.98
2017-05-23T07:43:40.337Z,30.14
2017-05-23T07:44:50.706Z,30.4
2017-05-23T07:46:01.081Z,30.7
2017-05-23T07:47:11.445Z,30.82
2017-05-23T07:48:21.799Z,30.7
2017-05-23T07:49:31.587Z,30.57
2017-05-23T07:50:41.937Z,30.47
2017-05-23T07:51:52.299Z,30.31
2017-05-23T07:53:02.357Z,30.28
2017-05-23T07:54:12.714Z,30.29
2017-05-23T07:55:22.488Z,30.29
2017-05-23T07:56:32.866Z,30.39
2017-05-23T07:57:43.226Z,30.39
2017-05-23T07:58:53.277Z,30.48
2017-05-23T08:00:03.669Z,30.6
2017-05-23T08:01:14.075Z,30.67
2017-05-23T08:02:24.422Z,30.7
2017-05-23T08:03:34.793Z,30.79
2017-05-23T08:04:44.852Z,30.75
2017-05-23T08:05:55.208Z,30.78
2017-05-23T08:07:05.619Z,30.85
2017-05-23T08:08:15.650Z,30.82
2017-05-23T08:09:26.018Z,30.84
2017-05-23T08:10:36.063Z,30.82
2017-05-23T08:11:46.413Z,30.75
2017-05-23T08:12:56.508Z,30.78
2017-05-23T08:14:06.630Z,30.79
2017-05-23T08:15:16.996Z,30.71
2017-05-23T08:16:27.022Z,30.73
2017-05-23T08:17:37.389Z,30.73
2017-05-23T08:18:47.761Z,30.66
2017-05-23T08:19:58.132Z,30.7
2017-05-23T08:21:08.178Z,30.62
2017-05-23T08:22:18.222Z,30.51
2017-05-23T08:23:28.590Z,30.35
2017-05-23T08:24:38.365Z,30.24
2017-05-23T08:25:48.735Z,30.22
2017-05-23T08:26:58.791Z,30.16
2017-05-23T08:28:09.150Z,30.09
2017-05-23T08:29:19.203Z,30.11
2017-05-23T08:30:29.307Z,30.11
2017-05-23T08:31:39.654Z,30.14
2017-05-23T08:32:49.692Z,30.16
2017-05-23T08:34:00.049Z,30.21
2017-05-23T08:35:10.411Z,30.18
2017-05-23T08:36:20.832Z,30.25
2017-05-23T08:37:31.204Z,30.26
2017-05-23T08:38:41.236Z,30.25
2017-05-23T08:39:50.968Z,30.26
2017-05-23T08:41:01.345Z,30.26
2017-05-23T08:42:11.721Z,30.21
2017-05-23T08:43:22.083Z,30.18
2017-05-23T08:44:32.447Z,30.19
2017-05-23T08:45:42.820Z,30.18
2017-05-23T08:46:53.174Z,30.18
2017-05-23T08:48:03.209Z,30.09
2017-05-23T08:49:13.579Z,30.16
2017-05-23T08:50:23.925Z,30.1
2017-05-23T08:51:34.294Z,30.03
2017-05-23T08:52:44.652Z,30.1
2017-05-23T08:53:54.777Z,30.11
2017-05-23T08:55:05.154Z,30.13
2017-05-23T08:56:15.198Z,30.14
2017-05-23T08:57:25.259Z,30.11
2017-05-23T08:58:35.605Z,30.16
2017-05-23T08:59:45.391Z,30.21
2017-05-23T09:00:55.442Z,30.26
2017-05-23T09:02:05.820Z,30.31
2017-05-23T09:03:16.168Z,30.31
2017-05-23T09:04:26.524Z,30.28
2017-05-23T09:05:36.877Z,30.42
2017-05-23T09:06:47.225Z,30.48
2017-05-23T09:07:57.584Z,30.54
2017-05-23T09:09:07.928Z,30.63
2017-05-23T09:10:18.284Z,30.79
2017-05-23T09:11:28.392Z,30.81
2017-05-23T09:12:38.747Z,30.89
2017-05-23T09:13:48.805Z,30.86
2017-05-23T09:14:58.845Z,30.86
2017-05-23T09:16:09.206Z,30.86
2017-05-23T09:17:19.304Z,30.78
2017-05-23T09:18:29.671Z,30.81
2017-05-23T09:19:40.018Z,30.81
2017-05-23T09:20:50.373Z,30.77
2017-05-23T09:22:00.414Z,30.77
2017-05-23T09:23:10.464Z,30.84
2017-05-23T09:24:20.804Z,30.88
2017-05-23T09:25:31.163Z,30.99
2017-05-23T09:26:41.513Z,30.99
2017-05-23T09:27:51.253Z,31.08
2017-05-23T09:29:00.987Z,31.01
2017-05-23T09:30:11.024Z,31.04
2017-05-23T09:31:21.390Z,31.06
2017-05-23T09:32:31.746Z,31.04
2017-05-23T09:33:42.134Z,30.99
2017-05-23T09:34:52.495Z,30.99
2017-05-23T09:36:02.847Z,30.99
2017-05-23T09:37:13.222Z,31
2017-05-23T09:38:23.596Z,31.04
2017-05-23T09:39:33.963Z,31.06
2017-05-23T09:40:44.339Z,31.18
2017-05-23T09:41:54.390Z,31.3
2017-05-23T09:43:04.444Z,31.43
2017-05-23T09:44:14.791Z,31.41
2017-05-23T09:45:25.144Z,31.52
2017-05-23T09:46:35.258Z,31.6
2017-05-23T09:47:45.306Z,31.71
2017-05-23T09:48:55.669Z,31.8
2017-05-23T09:50:06.041Z,31.86
2017-05-23T09:51:16.095Z,31.91
2017-05-23T09:52:26.447Z,31.95
2017-05-23T09:53:36.496Z,32.08
2017-05-23T09:54:46.870Z,32.17
2017-05-23T09:55:57.244Z,32.28
2017-05-23T09:57:07.604Z,32.28
2017-05-23T09:58:17.071Z,32.31
2017-05-23T09:59:27.127Z,32.38
2017-05-23T10:00:37.212Z,32.39
2017-05-23T10:01:47.261Z,32.37
2017-05-23T10:02:57.614Z,32.38
2017-05-23T10:04:08.116Z,32.31
2017-05-23T10:05:18.478Z,32.13
2017-05-23T10:06:28.830Z,32.09
2017-05-23T10:07:39.190Z,32.05
2017-05-23T10:08:49.540Z,31.98
2017-05-23T10:09:59.979Z,31.91
2017-05-23T10:11:09.724Z,31.87
2017-05-23T10:12:20.071Z,31.78
2017-05-23T10:13:30.421Z,31.58
2017-05-23T10:14:40.773Z,31.6
2017-05-23T10:15:51.218Z,31.47
2017-05-23T10:17:01.262Z,31.41
2017-05-23T10:18:11.617Z,31.49
2017-05-23T10:19:22.214Z,31.38
2017-05-23T10:20:32.267Z,31.28
2017-05-23T10:21:42.637Z,31.21
2017-05-23T10:22:53.003Z,31.21
2017-05-23T10:24:03.351Z,31.28
2017-05-23T10:25:13.396Z,31.22
2017-05-23T10:26:23.752Z,31.19
2017-05-23T10:27:34.134Z,31.26
2017-05-23T10:28:44.497Z,31.13
2017-05-23T10:29:54.862Z,31.08
2017-05-23T10:31:05.217Z,31.07
2017-05-23T10:32:15.574Z,30.99
2017-05-23T10:33:25.681Z,30.89
2017-05-23T10:34:36.057Z,30.93
2017-05-23T10:35:46.437Z,30.86
2017-05-23T10:36:56.783Z,30.75
2017-05-23T10:38:06.836Z,30.66
2017-05-23T10:39:16.928Z,30.57
2017-05-23T10:40:27.299Z,30.45
2017-05-23T10:41:37.655Z,30.32
2017-05-23T10:42:48.004Z,30.16
2017-05-23T10:43:58.368Z,30.1
2017-05-23T10:45:08.786Z,30.02
2017-05-23T10:46:19.158Z,29.84
2017-05-23T10:47:29.501Z,29.77
2017-05-23T10:48:39.546Z,29.75
2017-05-23T10:49:49.587Z,29.63
2017-05-23T10:50:59.682Z,29.69
2017-05-23T10:52:10.041Z,29.89
2017-05-23T10:53:20.416Z,30.16
2017-05-23T10:54:30.450Z,30.31
2017-05-23T10:55:40.489Z,30.42
2017-05-23T10:56:50.592Z,30.51
2017-05-23T10:58:00.618Z,30.71
2017-05-23T10:59:10.353Z,30.7
2017-05-23T11:00:20.398Z,30.84
2017-05-23T11:01:30.440Z,30.93
2017-05-23T11:02:40.845Z,30.93
2017-05-23T11:03:51.209Z,30.84
2017-05-23T11:05:01.577Z,30.84
2017-05-23T11:06:11.629Z,30.84
2017-05-23T11:07:21.991Z,30.85
2017-05-23T11:08:32.417Z,30.93
2017-05-23T11:09:42.466Z,31.04
2017-05-23T11:10:52.507Z,31.07
2017-05-23T11:12:02.570Z,31.04
2017-05-23T11:13:12.638Z,31.21
2017-05-23T11:14:23.196Z,31.34
2017-05-23T11:15:33.563Z,31.23
2017-05-23T11:16:43.910Z,31.31
2017-05-23T11:17:54.274Z,31.36
2017-05-23T11:19:04.633Z,31.37
2017-05-23T11:20:15.046Z,31.5
2017-05-23T11:21:25.402Z,31.5
2017-05-23T11:22:35.763Z,31.65
2017-05-23T11:23:46.124Z,31.74
2017-05-23T11:24:56.478Z,31.7
2017-05-23T11:26:06.247Z,31.82
2017-05-23T11:27:16.286Z,31.77
2017-05-23T11:28:26.646Z,31.75
2017-05-23T11:29:36.688Z,31.77
2017-05-23T11:30:47.047Z,31.74
2017-05-23T11:31:57.164Z,31.72
2017-05-23T11:33:07.527Z,31.77
2017-05-23T11:34:17.881Z,31.95
2017-05-23T11:35:28.242Z,32.05
2017-05-23T11:36:38.624Z,32.06
2017-05-23T11:37:48.972Z,32.28
2017-05-23T11:38:59.319Z,32.38
2017-05-23T11:40:09.670Z,32.35
2017-05-23T11:41:19.407Z,32.5
2017-05-23T11:42:29.143Z,32.38
2017-05-23T11:43:39.240Z,32.38
2017-05-23T11:44:49.277Z,32.39
2017-05-23T11:45:59.034Z,32.31
2017-05-23T11:47:09.432Z,32.31
2017-05-23T11:48:19.484Z,32.39
2017-05-23T11:49:29.893Z,32.34
2017-05-23T11:50:39.954Z,32.49
2017-05-23T11:51:50.313Z,32.49
2017-05-23T11:53:00.045Z,32.56
2017-05-23T11:54:10.405Z,32.59
2017-05-23T11:55:20.811Z,32.59
2017-05-23T11:56:30.555Z,32.57
2017-05-23T11:57:40.925Z,32.61
2017-05-23T11:58:51.303Z,32.61
2017-05-23T12:00:01.670Z,32.45
2017-05-23T12:01:11.775Z,32.46
2017-05-23T12:02:22.148Z,32.56
2017-05-23T12:03:31.896Z,32.52
2017-05-23T12:04:41.926Z,32.56
2017-05-23T12:05:51.968Z,32.69
2017-05-23T12:07:02.386Z,32.72
2017-05-23T12:08:12.753Z,32.81
2017-05-23T12:09:23.122Z,32.84
2017-05-23T12:10:33.467Z,32.91
2017-05-23T12:11:43.827Z,32.87
2017-05-23T12:12:54.250Z,33.01
2017-05-23T12:14:04.600Z,33.13
2017-05-23T12:15:14.963Z,33.17
2017-05-23T12:16:25.028Z,33.29
2017-05-23T12:17:35.075Z,33.39
2017-05-23T12:18:45.116Z,33.26
2017-05-23T12:19:55.179Z,33.23
2017-05-23T12:21:05.231Z,33.4
2017-05-23T12:22:15.605Z,33.21
2017-05-23T12:23:25.338Z,32.67
2017-05-23T12:24:35.788Z,32.42
2017-05-23T12:25:45.839Z,32.53
2017-05-23T12:26:56.213Z,32.25
2017-05-23T12:28:06.574Z,32.28
2017-05-23T12:29:16.938Z,32.43
2017-05-23T12:30:27.035Z,32.27
2017-05-23T12:31:37.391Z,32.16
2017-05-23T12:32:47.769Z,32.57
2017-05-23T12:33:58.142Z,32.76
2017-05-23T12:35:08.216Z,32.96
2017-05-23T12:36:18.567Z,33.13
2017-05-23T12:37:28.921Z,33.31
2017-05-23T12:38:38.660Z,32.87
2017-05-23T12:39:48.714Z,32.47
2017-05-23T12:40:59.084Z,32.17
2017-05-23T12:42:09.441Z,31.97
2017-05-23T12:43:19.495Z,32.3
2017-05-23T12:44:30.064Z,32.54
2017-05-23T12:45:40.621Z,32.38
2017-05-23T12:46:51.209Z,32.53
2017-05-23T12:48:01.617Z,32.47
2017-05-23T12:49:11.989Z,32.49
2017-05-23T12:50:22.340Z,32.31
2017-05-23T12:51:32.699Z,32.01
2017-05-23T12:52:42.743Z,31.81
2017-05-23T12:53:53.113Z,31.77
2017-05-23T12:55:03.495Z,31.62
2017-05-23T12:56:13.871Z,31.5
2017-05-23T12:57:23.936Z,31.4
2017-05-23T12:58:33.997Z,31.4
2017-05-23T12:59:43.771Z,31.37
2017-05-23T13:00:54.147Z,31.28
2017-05-23T13:02:04.205Z,31.18
2017-05-23T13:03:14.570Z,31.18
2017-05-23T13:04:24.627Z,31.18
2017-05-23T13:05:35.034Z,31.36
2017-05-23T13:06:45.415Z,31.52
2017-05-23T13:07:55.794Z,31.37
2017-05-23T13:09:05.834Z,31.16
2017-05-23T13:10:15.890Z,31.18
2017-05-23T13:11:26.002Z,31.16
2017-05-23T13:12:36.350Z,31.04
2017-05-23T13:13:46.732Z,31.15
2017-05-23T13:14:56.805Z,31.16
2017-05-23T13:16:06.848Z,31.25
2017-05-23T13:17:17.256Z,31.16
2017-05-23T13:18:27.613Z,31.33
2017-05-23T13:19:37.980Z,31.36
2017-05-23T13:20:48.364Z,31.36
2017-05-23T13:21:58.719Z,31.43
2017-05-23T13:23:09.126Z,31.43
2017-05-23T13:24:19.507Z,31.41
2017-05-23T13:25:29.890Z,31.56
2017-05-23T13:26:40.254Z,31.7
2017-05-23T13:27:50.308Z,31.88
2017-05-23T13:29:00.094Z,32.16
2017-05-23T13:30:10.466Z,32.19
2017-05-23T13:31:20.222Z,32.3
2017-05-23T13:32:29.972Z,32.24
2017-05-23T13:33:40.328Z,32.3
2017-05-23T13:34:50.702Z,32.35
2017-05-23T13:36:01.069Z,32.47
2017-05-23T13:37:11.422Z,32.65
2017-05-23T13:38:21.814Z,32.76
2017-05-23T13:39:32.211Z,32.81
2017-05-23T13:40:42.620Z,32.96
2017-05-23T13:41:52.664Z,33.12
2017-05-23T13:43:03.031Z,33.28
2017-05-23T13:44:13.081Z,33.32
2017-05-23T13:45:23.448Z,33.46
2017-05-23T13:46:33.863Z,33.5
2017-05-23T13:47:44.220Z,33.56
2017-05-23T13:48:54.581Z,33.69
2017-05-23T13:50:04.626Z,33.75
2017-05-23T13:51:14.675Z,33.71
2017-05-23T13:52:25.040Z,33.71
2017-05-23T13:53:35.396Z,33.78
2017-05-23T13:54:45.753Z,33.75
2017-05-23T13:55:55.825Z,33.68
2017-05-23T13:57:05.891Z,33.74
2017-05-23T13:58:15.995Z,33.63
2017-05-23T13:59:26.358Z,33.71
2017-05-23T14:00:36.712Z,33.73
2017-05-23T14:01:46.759Z,33.69
2017-05-23T14:02:56.520Z,33.61
2017-05-23T14:04:06.613Z,33.55
2017-05-23T14:05:16.977Z,33.47
2017-05-23T14:06:27.331Z,33.36
2017-05-23T14:07:37.646Z,33.26
2017-05-23T14:08:47.365Z,33.23
2017-05-23T14:09:57.810Z,33.29
2017-05-23T14:11:08.190Z,33.31
2017-05-23T14:12:18.556Z,33.23
2017-05-23T14:13:28.610Z,33.28
2017-05-23T14:14:38.687Z,33.23
2017-05-23T14:15:49.059Z,33.12
2017-05-23T14:16:59.116Z,33.05
2017-05-23T14:18:09.193Z,33.05
2017-05-23T14:19:19.580Z,33.03
2017-05-23T14:20:29.631Z,33.02
2017-05-23T14:21:40.025Z,32.91
2017-05-23T14:22:50.387Z,32.93
2017-05-23T14:24:00.798Z,32.81
2017-05-23T14:25:11.170Z,32.94
2017-05-23T14:26:21.215Z,32.96
2017-05-23T14:27:31.637Z,32.98
2017-05-23T14:28:42.209Z,32.87
2017-05-23T14:29:52.577Z,32.8
2017-05-23T14:31:02.951Z,32.75
2017-05-23T14:32:12.989Z,32.72
2017-05-23T14:33:23.449Z,32.69
2017-05-23T14:34:33.836Z,32.71
2017-05-23T14:35:43.915Z,32.64
2017-05-23T14:36:54.313Z,32.57
2017-05-23T14:38:04.701Z,32.59
2017-05-23T14:39:15.227Z,32.47
2017-05-23T14:40:25.404Z,32.46
2017-05-23T14:41:35.870Z,32.52
2017-05-23T14:42:46.290Z,32.87
2017-05-23T14:43:56.684Z,32.94
2017-05-23T14:45:07.100Z,33.02
2017-05-23T14:46:17.146Z,32.69
2017-05-23T14:47:27.528Z,32.45
2017-05-23T14:48:37.466Z,32.25
2017-05-23T14:49:47.831Z,32.08
2017-05-23T14:50:57.930Z,31.93
2017-05-23T14:52:08.307Z,31.65
2017-05-23T14:53:18.419Z,31.44
2017-05-23T14:54:28.481Z,31.43
2017-05-23T14:55:38.546Z,31.41
2017-05-23T14:56:48.903Z,31.34
2017-05-23T14:57:59.257Z,31.18
2017-05-23T14:59:09.301Z,31.25
2017-05-23T15:00:19.351Z,31.18
2017-05-23T15:01:29.711Z,31.22
2017-05-23T15:02:40.117Z,31.18
2017-05-23T15:03:50.483Z,31.21
2017-05-23T15:05:00.565Z,31.06
2017-05-23T15:06:10.619Z,30.99
2017-05-23T15:07:20.977Z,30.84
2017-05-23T15:08:31.337Z,30.77
2017-05-23T15:09:41.720Z,30.75
2017-05-23T15:10:52.094Z,30.75
2017-05-23T15:12:02.129Z,30.69
2017-05-23T15:13:12.494Z,30.73
2017-05-23T15:14:22.591Z,30.73
2017-05-23T15:15:32.642Z,30.7
2017-05-23T15:16:42.707Z,30.7
2017-05-23T15:17:53.065Z,30.69
2017-05-23T15:19:03.413Z,30.73
2017-05-23T15:20:13.215Z,30.69
2017-05-23T15:21:23.279Z,30.66
2017-05-23T15:22:33.632Z,30.75
2017-05-23T15:23:44.018Z,30.73
2017-05-23T15:24:54.439Z,31.03
2017-05-23T15:26:04.842Z,30.97
2017-05-23T15:27:15.199Z,31.12
2017-05-23T15:28:25.267Z,31.25
2017-05-23T15:29:35.331Z,31.26
2017-05-23T15:30:45.696Z,31.33
2017-05-23T15:31:56.119Z,31.45
2017-05-23T15:33:06.471Z,31.4
2017-05-23T15:34:16.839Z,31.58
2017-05-23T15:35:26.886Z,31.7
2017-05-23T15:36:36.957Z,31.86
2017-05-23T15:37:47.468Z,32.03
2017-05-23T15:38:57.511Z,32.1